Flight Track Log - Related Links

Times and Time Zones

All times are in EDT time to prevent confusion due to time zone crossing. See the SWA1841 flight status page for this flight to view local times or setup timezone preferences in your user account.

Time Position Orientation Groundspeed Altitude Reporting Facility
EDT Latitude Longitude Course Direction KTS MPH feet Rate Location/Type
Wed 08:25:11 PM 29.6333 -95.2678 141° Southeast 133 153 600  Level Houston Center
Wed 08:26:19 PM 29.5944 -95.2317 141° Southeast 181 208 3,000 2,276 Climbing Houston Center
Wed 08:27:07 PM 29.5625 -95.2008 140° Southeast 185 213 5,000 2,149 Climbing Houston Center
Wed 08:27:26 PM 29.5483 -95.1867 139° Southeast 216 249 5,400 2,032 Climbing Houston Center
Wed 08:28:09 PM 29.5419 -95.1336 98° East 263 303 7,100 2,656 Climbing Houston Center
Wed 08:28:27 PM 29.5658 -95.1053 46° Northeast 312 359 8,100 2,226 Climbing Houston Center
Wed 08:29:11 PM 29.6042 -95.0683 40° Northeast 311 358 9,400 2,321 Climbing Houston Center
Wed 08:30:13 PM 29.6322 -94.9478 75° East 345 397 12,200 2,710 Climbing Houston Center
Wed 08:31:15 PM 29.6489 -94.8353 80° East 353 406 15,000 2,806 Climbing Houston Center
Wed 08:32:17 PM 29.6547 -94.7131 87° East 379 436 18,000 2,903 Climbing Houston Center
Wed 08:33:19 PM 29.6614 -94.5867 86° East 393 452 21,000 2,661 Climbing Houston Center
Wed 08:34:21 PM 29.6667 -94.4539 87° East 411 473 23,500 2,032 Climbing Houston Center
Wed 08:35:23 PM 29.6728 -94.3131 87° East 436 502 25,200 1,839 Climbing Houston Center
Wed 08:36:25 PM 29.6814 -94.1317 87° East 471 542 27,300 1,839 Climbing Houston Center
Wed 08:37:27 PM 29.6839 -93.9736 89° East 490 564 29,000 1,694 Climbing Houston Center
Wed 08:38:29 PM 29.6839 -93.8106 90° East 505 581 30,800 1,839 Climbing Houston Center
Wed 08:39:31 PM 29.6817 -93.6450 91° East 514 592 32,800 1,984 Climbing Houston Center
Wed 08:40:33 PM 29.6800 -93.4822 91° East 513 590 34,900 1,984 Climbing Houston Center
Wed 08:41:35 PM 29.6778 -93.3242 91° East 502 578 36,900 1,258 Climbing Houston Center
Wed 08:42:37 PM 29.6747 -93.1550 91° East 494 568 37,500 581 Climbing Houston Center
Wed 08:43:39 PM 29.6736 -92.9922 90° East 505 581 38,100 726 Climbing Houston Center
Wed 08:44:41 PM 29.6703 -92.7928 91° East 519 597 39,000 435 Climbing Houston Center
Wed 08:45:43 PM 29.6669 -92.6300 91° East 514 592 39,000  Level Houston Center
Wed 08:46:45 PM 29.6644 -92.4697 91° East 508 585 39,000  Level Houston Center
Wed 08:47:47 PM 29.6675 -92.3056 89° East 514 592 39,000  Level Houston Center
Wed 08:48:49 PM 29.6819 -92.1472 84° East 504 580 39,000  Level Houston Center
Wed 08:49:51 PM 29.6992 -91.9542 84° East 507 583 39,000  Level Houston Center
Wed 08:50:53 PM 29.7122 -91.7953 85° East 504 580 39,000  Level Houston Center
Wed 08:51:55 PM 29.7258 -91.6281 85° East 501 577 39,000  Level Houston Center
Wed 08:52:57 PM 29.7400 -91.4694 84° East 499 574 39,000  Level Houston Center
Wed 08:54:00 PM 29.7490 -91.3360 86° East  Level FlightAware Approximate
Wed 08:55:01 PM 29.7656 -91.1503 86° East 503 579 39,000  Level Houston Center
Wed 08:56:03 PM 29.7783 -90.9906 85° East 503 579 39,000  Level Houston Center
Wed 08:57:05 PM 29.7900 -90.8308 85° East 503 579 39,000  Level Houston Center
Wed 08:58:07 PM 29.8044 -90.6394 85° East 502 578 39,000  Level Houston Center
Wed 08:59:09 PM 29.8164 -90.4811 85° East 500 575 39,000  Level Houston Center
Wed 09:00:11 PM 29.8272 -90.3228 85° East 500 575 39,000  Level Houston Center
Wed 09:01:13 PM 29.8392 -90.1664 85° East 496 571 39,000  Level Houston Center
Wed 09:02:15 PM 29.8558 -90.0117 83° East 491 565 39,000  Level Houston Center
Wed 09:03:17 PM 29.9183 -89.8469 66° East 474 545 39,000  Level Houston Center
Wed 09:04:19 PM 29.9739 -89.7119 65° Northeast 471 542 39,000 -97 Level Houston Center
Wed 09:05:21 PM 30.0297 -89.5761 65° Northeast 474 545 38,800 -581 Descending Houston Center
Wed 09:06:23 PM 30.0856 -89.4425 64° Northeast 469 540 37,800 -927 Descending Houston Center
Wed 09:07:24 PM 30.1386 -89.3092 65° Northeast 464 534 36,900 -1,024 Descending Houston Center
Wed 09:08:26 PM 30.2053 -89.1483 64° Northeast 465 535 35,700 -1,016 Descending Houston Center
Wed 09:09:28 PM 30.2606 -89.0136 65° Northeast 465 535 34,800 -919 Descending Houston Center
Wed 09:10:30 PM 30.3167 -88.8706 66° East 467 537 33,800 -968 Descending Houston Center
Wed 09:11:32 PM 30.3719 -88.7333 65° Northeast 470 541 32,800 -976 Descending Houston Center
Wed 09:12:33 PM 30.4258 -88.5983 65° Northeast 467 537 31,800 -976 Descending Houston Center
Wed 09:13:35 PM 30.4786 -88.4656 65° Northeast 459 528 30,800 -1,016 Descending Houston Center
Wed 09:14:37 PM 30.5292 -88.3361 66° East 444 511 29,700 -1,024 Descending Houston Center
Wed 09:15:38 PM 30.5800 -88.2064 65° Northeast 444 511 28,700 -1,073 Descending Houston Center
Wed 09:16:40 PM 30.6394 -88.0572 65° Northeast 430 495 27,500 -1,065 Descending Houston Center
Wed 09:17:42 PM 30.6889 -87.9328 65° Northeast 428 493 26,500 -970 Descending Houston Center
Wed 09:18:19 PM 30.7167 -87.8603 66° East 432 497 25,900 -928 Descending Jacksonville Center
Wed 09:19:19 PM 30.7608 -87.7392 67° East 427 491 25,000 -450 Descending Jacksonville Center
Wed 09:20:19 PM 30.7742 -87.6094 83° East 399 459 25,000 -500 Level Jacksonville Center
Wed 09:21:19 PM 30.7808 -87.4792 87° East 399 459 24,000 -1,000 Descending Jacksonville Center
Wed 09:22:19 PM 30.7897 -87.3492 85° East 399 459 23,000 -1,000 Descending Jacksonville Center
Wed 09:23:19 PM 30.7961 -87.2261 87° East 399 459 22,000 -1,000 Descending Jacksonville Center
Wed 09:24:19 PM 30.8044 -87.1031 85° East 387 445 21,000 -1,000 Descending Jacksonville Center
Wed 09:25:19 PM 30.8106 -86.9800 87° East 381 438 20,000 -1,000 Descending Jacksonville Center
Wed 09:26:19 PM 30.8206 -86.8572 85° East 381 438 19,000 -1,000 Descending Jacksonville Center
Wed 09:27:19 PM 30.8264 -86.7389 87° East 381 438 18,000 -1,450 Descending Jacksonville Center
Wed 09:28:19 PM 30.8239 -86.6081 91° East 369 425 16,100 -1,850 Descending Jacksonville Center
Wed 09:29:19 PM 30.8211 -86.4944 92° East 355 409 14,300 -1,800 Descending Jacksonville Center
Wed 09:30:19 PM 30.8178 -86.3853 92° East 348 400 12,500 -1,750 Descending Jacksonville Center
Wed 09:31:19 PM 30.8144 -86.2814 92° East 337 388 10,800 -1,400 Descending Jacksonville Center
Wed 09:32:19 PM 30.8128 -86.1819 91° East 317 365 9,700 -1,100 Descending Jacksonville Center
Wed 09:34:00 PM 30.7057 -86.0057 139° Southeast  Level FlightAware Approximate
Wed 09:41:00 PM 30.3582 -85.7956 147° Southeast  Level Estimated
Wed 09:42:00 PM 30.3582 -85.7956 147° Southeast  Level Estimated
Wed 09:43:00 PM 30.3582 -85.7956 147° Southeast  Level Estimated
Wed 09:44:00 PM 30.3582 -85.7956 147° Southeast  Level Estimated
Wed 09:45:00 PM 30.3582 -85.7956 147° Southeast  Level Estimated
Wed 09:46:00 PM 30.3582 -85.7956 147° Southeast  Level Estimated
Wed 09:47:00 PM 30.3582 -85.7956 147° Southeast  Level Estimated
Wed 09:48:00 PM 30.3582 -85.7956 147° Southeast  Level Estimated
Wed 09:49:00 PM 30.3582 -85.7956 147° Southeast  Level Estimated
Wed 09:50:00 PM 30.3582 -85.7956 147° Southeast  Level Estimated

Login

Don't have an account? Register now (free) for customized features, flight alerts, and more!